createdAt,value
2017-03-04T00:01:06.148Z,0
2017-03-04T00:02:16.029Z,0
2017-03-04T00:03:25.882Z,0
2017-03-04T00:04:35.391Z,0
2017-03-04T00:05:44.852Z,0
2017-03-04T00:06:53.958Z,0
2017-03-04T00:08:03.045Z,0
2017-03-04T00:09:12.130Z,0
2017-03-04T00:10:21.221Z,0
2017-03-04T00:11:30.310Z,0
2017-03-04T00:12:39.418Z,0
2017-03-04T00:13:48.906Z,0
2017-03-04T00:14:58.372Z,0
2017-03-04T00:16:07.473Z,0
2017-03-04T00:17:17.319Z,0
2017-03-04T00:18:26.800Z,0
2017-03-04T00:19:37.032Z,0
2017-03-04T00:20:46.492Z,0
2017-03-04T00:21:56.347Z,0
2017-03-04T00:23:05.437Z,0
2017-03-04T00:24:14.934Z,0
2017-03-04T00:25:24.792Z,0
2017-03-04T00:26:35.029Z,0
2017-03-04T00:27:44.502Z,0
2017-03-04T00:28:54.358Z,0
2017-03-04T00:30:04.233Z,0
2017-03-04T00:31:13.736Z,0
2017-03-04T00:32:23.204Z,0
2017-03-04T00:33:32.316Z,0
2017-03-04T00:34:41.786Z,0
2017-03-04T00:35:51.245Z,0
2017-03-04T00:36:59.968Z,0
2017-03-04T00:38:09.822Z,0
2017-03-04T00:39:20.494Z,0
2017-03-04T00:40:29.970Z,0
2017-03-04T00:41:39.047Z,0
2017-03-04T00:42:49.315Z,0
2017-03-04T00:43:59.187Z,0
2017-03-04T00:45:09.030Z,0
2017-03-04T00:46:18.143Z,0
2017-03-04T00:47:27.630Z,0
2017-03-04T00:48:37.095Z,0
2017-03-04T00:49:46.581Z,0
2017-03-04T00:50:56.066Z,0
2017-03-04T00:52:05.164Z,0
2017-03-04T00:53:14.626Z,0
2017-03-04T00:54:24.477Z,0
2017-03-04T00:55:34.750Z,0
2017-03-04T00:56:43.832Z,0
2017-03-04T00:57:53.328Z,0
2017-03-04T00:59:02.801Z,0
2017-03-04T01:00:13.066Z,0
2017-03-04T01:01:22.563Z,0
2017-03-04T01:02:32.043Z,0
2017-03-04T01:03:41.927Z,0
2017-03-04T01:04:51.384Z,0
2017-03-04T01:06:01.265Z,0
2017-03-04T01:07:10.759Z,0
2017-03-04T01:08:20.214Z,0
2017-03-04T01:09:30.471Z,0
2017-03-04T01:10:40.338Z,0
2017-03-04T01:11:50.587Z,0
2017-03-04T01:12:59.690Z,0
2017-03-04T01:14:09.199Z,0
2017-03-04T01:15:18.315Z,0
2017-03-04T01:16:28.562Z,0
2017-03-04T01:17:38.417Z,0
2017-03-04T01:18:47.915Z,0
2017-03-04T01:19:57.772Z,0
2017-03-04T01:21:07.618Z,0
2017-03-04T01:22:17.481Z,0
2017-03-04T01:23:27.348Z,0
2017-03-04T01:24:36.446Z,0
2017-03-04T01:25:45.161Z,0
2017-03-04T01:26:55.035Z,0
2017-03-04T01:28:04.527Z,0
2017-03-04T01:29:13.602Z,0
2017-03-04T01:30:23.084Z,0
2017-03-04T01:31:32.572Z,0
2017-03-04T01:32:42.439Z,0
2017-03-04T01:33:52.703Z,0
2017-03-04T01:35:02.580Z,0
2017-03-04T01:36:12.495Z,0
2017-03-04T01:37:23.126Z,0
2017-03-04T01:38:33.362Z,0
2017-03-04T01:39:42.459Z,0
2017-03-04T01:40:51.576Z,0
2017-03-04T01:42:00.670Z,0
2017-03-04T01:43:09.399Z,0
2017-03-04T01:44:18.483Z,0
2017-03-04T01:45:28.740Z,0
2017-03-04T01:46:38.227Z,0
2017-03-04T01:47:46.939Z,0
2017-03-04T01:48:56.782Z,0
2017-03-04T01:50:07.041Z,0
2017-03-04T01:51:17.305Z,0
2017-03-04T01:52:27.178Z,0
2017-03-04T01:53:36.670Z,0
2017-03-04T01:54:46.520Z,0
2017-03-04T01:55:56.014Z,0
2017-03-04T01:57:06.660Z,0
2017-03-04T01:58:16.512Z,0
2017-03-04T01:59:25.994Z,0
2017-03-04T02:00:35.855Z,0
2017-03-04T02:01:45.376Z,0
2017-03-04T02:02:54.499Z,0
2017-03-04T02:04:04.348Z,0
2017-03-04T02:05:14.217Z,0
2017-03-04T02:06:24.101Z,0
2017-03-04T02:07:33.610Z,0
2017-03-04T02:08:42.701Z,0
2017-03-04T02:09:52.185Z,0
2017-03-04T02:11:01.674Z,0
2017-03-04T02:12:11.911Z,0
2017-03-04T02:13:21.386Z,0
2017-03-04T02:14:30.476Z,0
2017-03-04T02:15:39.953Z,0
2017-03-04T02:16:49.824Z,0
2017-03-04T02:17:59.324Z,0
2017-03-04T02:19:09.178Z,0
2017-03-04T02:20:18.275Z,0
2017-03-04T02:21:27.754Z,0
2017-03-04T02:22:37.245Z,0
2017-03-04T02:23:46.363Z,0
2017-03-04T02:24:55.450Z,0
2017-03-04T02:26:04.922Z,0
2017-03-04T02:27:14.011Z,0
2017-03-04T02:28:23.116Z,0
2017-03-04T02:29:33.378Z,0
2017-03-04T02:30:44.022Z,0
2017-03-04T02:31:53.508Z,0
2017-03-04T02:33:02.978Z,0
2017-03-04T02:34:12.849Z,0
2017-03-04T02:35:22.364Z,0
2017-03-04T02:36:32.232Z,0
2017-03-04T02:37:42.093Z,0
2017-03-04T02:38:52.330Z,0
2017-03-04T02:40:01.438Z,0
2017-03-04T02:41:10.179Z,0
2017-03-04T02:42:20.048Z,0
2017-03-04T02:43:29.905Z,0
2017-03-04T02:44:39.386Z,0
2017-03-04T02:45:48.878Z,0
2017-03-04T02:46:58.370Z,0
2017-03-04T02:48:07.458Z,0
2017-03-04T02:49:16.543Z,0
2017-03-04T02:50:26.002Z,0
2017-03-04T02:51:35.461Z,0
2017-03-04T02:52:44.561Z,0
2017-03-04T02:53:53.664Z,0
2017-03-04T02:55:03.512Z,0
2017-03-04T02:56:12.987Z,0
2017-03-04T02:57:22.072Z,0
2017-03-04T02:58:31.932Z,0
2017-03-04T02:59:41.778Z,0
2017-03-04T03:00:50.877Z,0
2017-03-04T03:01:59.953Z,0
2017-03-04T03:03:09.427Z,0
2017-03-04T03:04:18.917Z,0
2017-03-04T03:05:29.184Z,0
2017-03-04T03:06:38.668Z,0
2017-03-04T03:07:47.772Z,0
2017-03-04T03:08:58.018Z,0
2017-03-04T03:10:07.119Z,0
2017-03-04T03:11:16.205Z,0
2017-03-04T03:12:25.670Z,0
2017-03-04T03:13:36.299Z,0
2017-03-04T03:14:46.239Z,0
2017-03-04T03:15:55.729Z,0
2017-03-04T03:17:05.615Z,0
2017-03-04T03:18:15.461Z,0
2017-03-04T03:19:24.923Z,0
2017-03-04T03:20:35.179Z,0
2017-03-04T03:21:44.271Z,0
2017-03-04T03:22:53.769Z,0
2017-03-04T03:24:03.633Z,0
2017-03-04T03:25:12.727Z,0
2017-03-04T03:26:22.998Z,0
2017-03-04T03:27:32.849Z,0
2017-03-04T03:28:41.927Z,0
2017-03-04T03:29:51.027Z,0
2017-03-04T03:31:00.879Z,0
2017-03-04T03:32:10.742Z,0
2017-03-04T03:33:20.218Z,0
2017-03-04T03:34:29.328Z,0
2017-03-04T03:35:38.428Z,0
2017-03-04T03:36:48.280Z,0
2017-03-04T03:37:57.368Z,0
2017-03-04T03:39:06.835Z,0
2017-03-04T03:40:17.069Z,0
2017-03-04T03:41:26.551Z,0
2017-03-04T03:42:36.055Z,0
2017-03-04T03:43:45.154Z,0
2017-03-04T03:44:54.996Z,0
2017-03-04T03:46:05.266Z,0
2017-03-04T03:47:14.374Z,0
2017-03-04T03:48:24.237Z,0
2017-03-04T03:49:33.730Z,0
2017-03-04T03:50:43.213Z,0
2017-03-04T03:51:52.709Z,0
2017-03-04T03:53:02.958Z,0
2017-03-04T03:54:12.052Z,0
2017-03-04T03:55:21.175Z,0
2017-03-04T03:56:30.647Z,0
2017-03-04T03:57:40.116Z,0
2017-03-04T03:58:49.264Z,0
2017-03-04T03:59:59.131Z,0
2017-03-04T04:01:09.392Z,0
2017-03-04T04:02:18.865Z,0
2017-03-04T04:03:28.723Z,0
2017-03-04T04:04:38.612Z,0
2017-03-04T04:05:48.085Z,0
2017-03-04T04:06:57.165Z,0
2017-03-04T04:08:07.027Z,0
2017-03-04T04:09:16.877Z,0
2017-03-04T04:10:26.731Z,0
2017-03-04T04:11:36.577Z,0
2017-03-04T04:12:45.670Z,0
2017-03-04T04:13:55.520Z,0
2017-03-04T04:15:04.994Z,0
2017-03-04T04:16:14.098Z,0
2017-03-04T04:17:22.810Z,0
2017-03-04T04:18:31.902Z,0
2017-03-04T04:19:40.982Z,0
2017-03-04T04:20:50.066Z,0
2017-03-04T04:21:59.538Z,0
2017-03-04T04:23:08.619Z,0
2017-03-04T04:24:17.725Z,0
2017-03-04T04:25:27.209Z,0
2017-03-04T04:26:36.304Z,0
2017-03-04T04:27:45.388Z,0
2017-03-04T04:28:55.629Z,0
2017-03-04T04:30:04.728Z,0
2017-03-04T04:31:14.596Z,0
2017-03-04T04:32:24.072Z,0
2017-03-04T04:33:33.946Z,0
2017-03-04T04:34:43.031Z,0
2017-03-04T04:35:52.131Z,0
2017-03-04T04:37:01.607Z,0
2017-03-04T04:38:11.844Z,0
2017-03-04T04:39:21.340Z,0
2017-03-04T04:40:31.578Z,0
2017-03-04T04:41:41.466Z,0
2017-03-04T04:42:50.938Z,0
2017-03-04T04:43:59.663Z,0
2017-03-04T04:45:09.530Z,0
2017-03-04T04:46:19.030Z,0
2017-03-04T04:47:28.894Z,0
2017-03-04T04:48:37.998Z,0
2017-03-04T04:49:47.074Z,0
2017-03-04T04:50:56.140Z,0
2017-03-04T04:52:06.374Z,0
2017-03-04T04:53:16.255Z,0
2017-03-04T04:54:26.879Z,0
2017-03-04T04:55:35.967Z,0
2017-03-04T04:56:46.210Z,0
2017-03-04T04:57:55.672Z,0
2017-03-04T04:59:04.773Z,0
2017-03-04T05:00:14.627Z,0
2017-03-04T05:01:24.105Z,0
2017-03-04T05:02:33.245Z,0
2017-03-04T05:03:43.109Z,0
2017-03-04T05:04:52.954Z,0
2017-03-04T05:06:02.426Z,0
2017-03-04T05:07:12.300Z,0
2017-03-04T05:08:21.000Z,0
2017-03-04T05:09:30.492Z,0
2017-03-04T05:10:41.107Z,0
2017-03-04T05:11:51.336Z,0
2017-03-04T05:13:00.432Z,0
2017-03-04T05:14:10.279Z,0
2017-03-04T05:15:19.773Z,0
2017-03-04T05:16:29.256Z,0
2017-03-04T05:17:39.109Z,0
2017-03-04T05:18:48.197Z,0
2017-03-04T05:19:57.675Z,0
2017-03-04T05:21:06.784Z,0
2017-03-04T05:22:15.904Z,0
2017-03-04T05:23:25.016Z,0
2017-03-04T05:24:34.511Z,0
2017-03-04T05:25:44.000Z,0
2017-03-04T05:26:53.089Z,0
2017-03-04T05:28:02.569Z,0
2017-03-04T05:29:12.456Z,0
2017-03-04T05:30:22.311Z,0
2017-03-04T05:31:32.552Z,0
2017-03-04T05:32:41.638Z,0
2017-03-04T05:33:50.751Z,0
2017-03-04T05:34:59.452Z,0
2017-03-04T05:36:08.926Z,0
2017-03-04T05:37:18.778Z,0
2017-03-04T05:38:28.636Z,0
2017-03-04T05:39:38.503Z,0
2017-03-04T05:40:47.979Z,0
2017-03-04T05:41:57.470Z,0
2017-03-04T05:43:06.558Z,0
2017-03-04T05:44:16.436Z,4
2017-03-04T05:45:26.309Z,4
2017-03-04T05:46:36.177Z,4
2017-03-04T05:47:46.409Z,4
2017-03-04T05:48:55.890Z,4
2017-03-04T05:50:05.357Z,8
2017-03-04T05:51:15.202Z,8
2017-03-04T05:52:24.323Z,8
2017-03-04T05:53:33.417Z,12
2017-03-04T05:54:42.885Z,16
2017-03-04T05:55:52.358Z,16
2017-03-04T05:57:01.453Z,20
2017-03-04T05:58:10.944Z,20
2017-03-04T05:59:20.827Z,24
2017-03-04T06:00:29.911Z,32
2017-03-04T06:01:39.790Z,32
2017-03-04T06:02:48.884Z,40
2017-03-04T06:03:58.363Z,48
2017-03-04T06:05:08.226Z,52
2017-03-04T06:06:16.934Z,60
2017-03-04T06:07:26.785Z,68
2017-03-04T06:08:36.645Z,76
2017-03-04T06:09:46.149Z,88
2017-03-04T06:10:56.396Z,104
2017-03-04T06:12:05.879Z,116
2017-03-04T06:13:15.764Z,128
2017-03-04T06:14:26.002Z,148
2017-03-04T06:15:35.852Z,164
2017-03-04T06:16:45.712Z,180
2017-03-04T06:17:54.808Z,208
2017-03-04T06:19:03.895Z,240
2017-03-04T06:20:13.001Z,272
2017-03-04T06:21:22.501Z,300
2017-03-04T06:22:31.976Z,328
2017-03-04T06:23:41.460Z,356
2017-03-04T06:24:50.545Z,392
2017-03-04T06:26:00.781Z,452
2017-03-04T06:27:10.241Z,532
2017-03-04T06:28:19.007Z,628
2017-03-04T06:29:29.238Z,740
2017-03-04T06:30:39.102Z,852
2017-03-04T06:31:49.734Z,952
2017-03-04T06:32:59.198Z,1040
2017-03-04T06:34:07.932Z,1128
2017-03-04T06:35:17.404Z,1208
2017-03-04T06:36:27.268Z,1284
2017-03-04T06:37:36.744Z,1344
2017-03-04T06:38:45.844Z,1400
2017-03-04T06:39:56.078Z,1456
2017-03-04T06:41:05.175Z,1504
2017-03-04T06:42:15.023Z,1552
2017-03-04T06:43:24.513Z,1616
2017-03-04T06:44:34.009Z,1692
2017-03-04T06:45:42.726Z,1768
2017-03-04T06:46:52.982Z,1812
2017-03-04T06:48:01.674Z,1848
2017-03-04T06:49:11.140Z,1948
2017-03-04T06:50:20.675Z,2112
2017-03-04T06:51:29.770Z,2296
2017-03-04T06:52:39.650Z,2476
2017-03-04T06:53:50.283Z,2652
2017-03-04T06:54:59.790Z,2776
2017-03-04T06:56:08.878Z,2796
2017-03-04T06:57:17.993Z,2764
2017-03-04T06:58:27.868Z,2784
2017-03-04T06:59:36.583Z,2848
2017-03-04T07:00:46.071Z,2896
2017-03-04T07:01:55.536Z,2968
2017-03-04T07:03:05.012Z,3136
2017-03-04T07:04:14.510Z,3328
2017-03-04T07:05:23.989Z,3472
2017-03-04T07:06:34.616Z,3668
2017-03-04T07:07:44.496Z,3988
2017-03-04T07:08:53.987Z,4328
2017-03-04T07:10:03.865Z,4636
2017-03-04T07:11:13.332Z,4860
2017-03-04T07:12:22.424Z,5004
2017-03-04T07:13:31.534Z,5140
2017-03-04T07:14:41.392Z,5268
2017-03-04T07:15:50.869Z,5412
2017-03-04T07:16:59.967Z,5600
2017-03-04T07:18:09.831Z,5768
2017-03-04T07:19:19.312Z,5908
2017-03-04T07:20:29.181Z,6020
2017-03-04T07:21:39.425Z,6132
2017-03-04T07:22:49.278Z,6244
2017-03-04T07:23:59.123Z,6364
2017-03-04T07:25:08.640Z,6500
2017-03-04T07:26:18.508Z,6656
2017-03-04T07:27:28.380Z,6808
2017-03-04T07:28:38.262Z,6928
2017-03-04T07:29:48.520Z,7036
2017-03-04T07:30:58.379Z,7148
2017-03-04T07:32:08.615Z,7300
2017-03-04T07:33:17.321Z,7472
2017-03-04T07:34:27.196Z,7672
2017-03-04T07:35:37.075Z,7868
2017-03-04T07:36:46.164Z,8024
2017-03-04T07:37:56.407Z,8148
2017-03-04T07:39:07.047Z,8248
2017-03-04T07:40:16.129Z,8288
2017-03-04T07:41:26.372Z,8112
2017-03-04T07:42:35.856Z,7580
2017-03-04T07:43:45.385Z,6900
2017-03-04T07:44:54.852Z,6044
2017-03-04T07:46:04.721Z,4824
2017-03-04T07:47:14.599Z,3880
2017-03-04T07:48:23.685Z,3176
2017-03-04T07:49:33.172Z,2488
2017-03-04T07:50:42.649Z,2152
2017-03-04T07:51:51.762Z,2252
2017-03-04T07:53:01.235Z,2224
2017-03-04T07:54:10.704Z,2072
2017-03-04T07:55:20.177Z,2088
2017-03-04T07:56:30.053Z,2188
2017-03-04T07:57:39.909Z,2296
2017-03-04T07:58:50.549Z,2412
2017-03-04T08:00:00.413Z,2520
2017-03-04T08:01:09.881Z,2776
2017-03-04T08:02:19.340Z,3164
2017-03-04T08:03:28.836Z,3828
2017-03-04T08:04:38.690Z,5172
2017-03-04T08:05:47.768Z,6616
2017-03-04T08:06:57.610Z,7612
2017-03-04T08:08:07.841Z,8348
2017-03-04T08:09:18.076Z,8844
2017-03-04T08:10:27.935Z,9708
2017-03-04T08:11:37.436Z,10176
2017-03-04T08:12:47.325Z,9780
2017-03-04T08:13:57.608Z,9712
2017-03-04T08:15:07.076Z,10260
2017-03-04T08:16:16.166Z,10900
2017-03-04T08:17:24.900Z,11296
2017-03-04T08:18:34.404Z,11224
2017-03-04T08:19:43.892Z,10564
2017-03-04T08:20:53.027Z,8984
2017-03-04T08:22:02.497Z,6420
2017-03-04T08:23:12.747Z,4532
2017-03-04T08:24:22.989Z,4328
2017-03-04T08:25:32.486Z,5096
2017-03-04T08:26:41.181Z,6316
2017-03-04T08:27:51.031Z,7484
2017-03-04T08:29:00.126Z,8480
2017-03-04T08:30:09.602Z,9228
2017-03-04T08:31:19.468Z,9472
2017-03-04T08:32:28.945Z,9340
2017-03-04T08:33:38.433Z,9508
2017-03-04T08:34:48.288Z,10256
2017-03-04T08:35:58.927Z,10864
2017-03-04T08:37:09.171Z,11104
2017-03-04T08:38:19.032Z,11292
2017-03-04T08:39:28.885Z,11548
2017-03-04T08:40:38.755Z,12076
2017-03-04T08:41:48.217Z,12784
2017-03-04T08:42:57.691Z,13600
2017-03-04T08:44:06.809Z,14520
2017-03-04T08:45:17.060Z,15192
2017-03-04T08:46:26.542Z,15396
2017-03-04T08:47:36.023Z,15340
2017-03-04T08:48:45.888Z,15088
2017-03-04T08:49:55.394Z,14896
2017-03-04T08:51:05.258Z,14724
2017-03-04T08:52:14.745Z,14444
2017-03-04T08:53:24.236Z,13960
2017-03-04T08:54:33.328Z,13884
2017-03-04T08:55:43.195Z,14068
2017-03-04T08:56:52.665Z,14168
2017-03-04T08:58:02.168Z,14128
2017-03-04T08:59:11.692Z,14100
2017-03-04T09:00:21.189Z,14044
2017-03-04T09:01:29.893Z,13884
2017-03-04T09:02:39.774Z,13768
2017-03-04T09:03:49.640Z,13716
2017-03-04T09:04:59.119Z,13680
2017-03-04T09:06:08.992Z,13700
2017-03-04T09:07:18.478Z,13796
2017-03-04T09:08:28.354Z,13956
2017-03-04T09:09:37.462Z,14152
2017-03-04T09:10:47.362Z,14380
2017-03-04T09:11:57.225Z,14580
2017-03-04T09:13:06.718Z,14736
2017-03-04T09:14:16.199Z,14872
2017-03-04T09:15:26.444Z,15028
2017-03-04T09:16:36.296Z,15180
2017-03-04T09:17:45.845Z,15324
2017-03-04T09:18:54.958Z,15492
2017-03-04T09:20:04.451Z,15608
2017-03-04T09:21:14.325Z,15804
2017-03-04T09:22:24.978Z,15968
2017-03-04T09:23:34.866Z,16024
2017-03-04T09:24:44.349Z,16132
2017-03-04T09:25:53.835Z,16436
2017-03-04T09:27:03.327Z,16728
2017-03-04T09:28:12.796Z,17100
2017-03-04T09:29:23.036Z,17664
2017-03-04T09:30:32.513Z,18176
2017-03-04T09:31:41.990Z,18144
2017-03-04T09:32:51.089Z,18400
2017-03-04T09:34:00.195Z,18880
2017-03-04T09:35:10.043Z,18816
2017-03-04T09:36:19.532Z,18720
2017-03-04T09:37:29.013Z,18880
2017-03-04T09:38:39.255Z,19136
2017-03-04T09:39:48.341Z,19392
2017-03-04T09:40:58.244Z,19712
2017-03-04T09:42:08.114Z,20256
2017-03-04T09:43:17.226Z,20448
2017-03-04T09:44:27.097Z,20704
2017-03-04T09:45:36.195Z,21312
2017-03-04T09:46:45.676Z,22144
2017-03-04T09:47:55.546Z,21888
2017-03-04T09:49:05.059Z,22336
2017-03-04T09:50:15.310Z,23552
2017-03-04T09:51:24.807Z,24672
2017-03-04T09:52:34.301Z,23904
2017-03-04T09:53:44.167Z,24448
2017-03-04T09:54:53.630Z,24544
2017-03-04T09:56:03.511Z,25504
2017-03-04T09:57:12.983Z,22368
2017-03-04T09:58:22.475Z,21664
2017-03-04T09:59:32.359Z,21280
2017-03-04T10:00:42.211Z,20864
2017-03-04T10:01:52.086Z,20352
2017-03-04T10:03:01.565Z,20032
2017-03-04T10:04:11.062Z,19936
2017-03-04T10:05:20.543Z,20384
2017-03-04T10:06:29.656Z,21184
2017-03-04T10:07:38.373Z,21760
2017-03-04T10:08:47.470Z,24160
2017-03-04T10:09:56.951Z,24192
2017-03-04T10:11:06.459Z,22944
2017-03-04T10:12:16.355Z,21856
2017-03-04T10:13:26.280Z,21664
2017-03-04T10:14:35.774Z,22016
2017-03-04T10:15:44.896Z,22592
2017-03-04T10:16:55.163Z,23104
2017-03-04T10:18:04.306Z,22752
2017-03-04T10:19:14.541Z,22816
2017-03-04T10:20:23.659Z,23040
2017-03-04T10:21:33.151Z,23264
2017-03-04T10:22:42.638Z,23456
2017-03-04T10:23:52.117Z,23296
2017-03-04T10:25:01.987Z,23040
2017-03-04T10:26:11.468Z,22688
2017-03-04T10:27:22.123Z,22688
2017-03-04T10:28:31.593Z,22848
2017-03-04T10:29:41.103Z,22944
2017-03-04T10:30:50.582Z,22784
2017-03-04T10:32:00.083Z,22208
2017-03-04T10:33:09.552Z,21248
2017-03-04T10:34:19.820Z,20544
2017-03-04T10:35:29.679Z,19808
2017-03-04T10:36:38.778Z,19360
2017-03-04T10:37:48.279Z,18976
2017-03-04T10:38:57.771Z,18656
2017-03-04T10:40:07.637Z,17920
2017-03-04T10:41:16.726Z,17244
2017-03-04T10:42:25.839Z,17536
2017-03-04T10:43:34.555Z,17760
2017-03-04T10:44:44.037Z,17036
2017-03-04T10:45:53.510Z,15536
2017-03-04T10:47:03.368Z,13944
2017-03-04T10:48:13.614Z,12708
2017-03-04T10:49:23.466Z,12972
2017-03-04T10:50:32.598Z,14776
2017-03-04T10:51:42.460Z,16540
2017-03-04T10:52:51.967Z,16452
2017-03-04T10:54:01.458Z,15900
2017-03-04T10:55:10.937Z,16164
2017-03-04T10:56:20.440Z,16160
2017-03-04T10:57:29.923Z,15252
2017-03-04T10:58:39.036Z,13868
2017-03-04T10:59:48.914Z,12744
2017-03-04T11:00:59.168Z,12028
2017-03-04T11:02:09.016Z,11580
2017-03-04T11:03:18.115Z,11016
2017-03-04T11:04:27.268Z,10160
2017-03-04T11:05:37.124Z,9448
2017-03-04T11:06:46.631Z,9008
2017-03-04T11:07:56.110Z,8840
2017-03-04T11:09:05.201Z,8924
2017-03-04T11:10:14.693Z,9340
2017-03-04T11:11:23.432Z,10176
2017-03-04T11:12:32.512Z,10968
2017-03-04T11:13:42.385Z,11616
2017-03-04T11:14:53.045Z,12852
2017-03-04T11:16:02.916Z,13624
2017-03-04T11:17:13.197Z,13816
2017-03-04T11:18:22.315Z,14580
2017-03-04T11:19:31.800Z,16024
2017-03-04T11:20:40.507Z,18304
2017-03-04T11:21:49.605Z,20352
2017-03-04T11:22:59.487Z,20576
2017-03-04T11:24:08.962Z,19616
2017-03-04T11:25:18.459Z,19008
2017-03-04T11:26:27.954Z,19616
2017-03-04T11:27:37.838Z,19200
2017-03-04T11:28:47.716Z,18464
2017-03-04T11:29:56.807Z,19360
2017-03-04T11:31:05.533Z,21760
2017-03-04T11:32:15.383Z,22432
2017-03-04T11:33:24.483Z,21824
2017-03-04T11:34:34.375Z,21632
2017-03-04T11:35:43.886Z,21696
2017-03-04T11:36:53.368Z,20992
2017-03-04T11:38:02.853Z,20128
2017-03-04T11:39:11.962Z,18848
2017-03-04T11:40:21.449Z,17072
2017-03-04T11:41:30.175Z,15712
2017-03-04T11:42:40.050Z,15228
2017-03-04T11:43:50.318Z,16032
2017-03-04T11:45:00.208Z,17032
2017-03-04T11:46:10.076Z,17760
2017-03-04T11:47:20.344Z,18240
2017-03-04T11:48:30.228Z,19008
2017-03-04T11:49:38.962Z,19712
2017-03-04T11:50:49.605Z,19872
2017-03-04T11:51:58.705Z,20288
2017-03-04T11:53:08.582Z,21056
2017-03-04T11:54:18.456Z,22048
2017-03-04T11:55:27.557Z,22784
2017-03-04T11:56:37.445Z,23552
2017-03-04T11:57:46.538Z,24288
2017-03-04T11:58:56.801Z,24960
2017-03-04T12:00:06.277Z,25600
2017-03-04T12:01:15.382Z,26176
2017-03-04T12:02:25.259Z,26272
2017-03-04T12:03:35.554Z,25824
2017-03-04T12:04:45.448Z,25120
2017-03-04T12:05:55.326Z,24352
2017-03-04T12:07:05.204Z,23680
2017-03-04T12:08:15.474Z,23488
2017-03-04T12:09:25.340Z,24384
2017-03-04T12:10:35.236Z,25888
2017-03-04T12:11:44.719Z,27136
2017-03-04T12:12:53.810Z,27808
2017-03-04T12:14:03.286Z,27808
2017-03-04T12:15:12.778Z,28160
2017-03-04T12:16:23.051Z,28544
2017-03-04T12:17:32.916Z,28256
2017-03-04T12:18:42.814Z,27744
2017-03-04T12:19:52.702Z,27168
2017-03-04T12:21:02.582Z,26400
2017-03-04T12:22:12.861Z,25280
2017-03-04T12:23:22.722Z,24480
2017-03-04T12:24:32.978Z,24576
2017-03-04T12:25:42.868Z,24576
2017-03-04T12:26:51.971Z,25088
2017-03-04T12:28:01.081Z,26016
2017-03-04T12:29:10.576Z,25696
2017-03-04T12:30:20.070Z,23968
2017-03-04T12:31:29.946Z,22048
2017-03-04T12:32:39.427Z,21952
2017-03-04T12:33:48.532Z,23584
2017-03-04T12:34:58.789Z,23840
2017-03-04T12:36:08.685Z,23456
2017-03-04T12:37:17.402Z,22912
2017-03-04T12:38:26.901Z,22016
2017-03-04T12:39:36.385Z,20480
2017-03-04T12:40:45.122Z,18976
2017-03-04T12:41:55.028Z,18304
2017-03-04T12:43:05.291Z,18112
2017-03-04T12:44:15.185Z,18144
2017-03-04T12:45:24.299Z,17864
2017-03-04T12:46:33.424Z,17632
2017-03-04T12:47:42.145Z,17628
2017-03-04T12:48:51.611Z,18016
2017-03-04T12:50:01.098Z,18368
2017-03-04T12:51:11.375Z,18784
2017-03-04T12:52:21.607Z,18976
2017-03-04T12:53:31.474Z,19424
2017-03-04T12:54:40.960Z,19904
2017-03-04T12:55:51.208Z,20064
2017-03-04T12:57:00.310Z,19968
2017-03-04T12:58:09.022Z,20000
2017-03-04T12:59:18.514Z,20320
2017-03-04T13:00:27.600Z,20608
2017-03-04T13:01:37.090Z,20704
2017-03-04T13:02:46.619Z,20640
2017-03-04T13:03:56.106Z,20352
2017-03-04T13:05:05.593Z,20000
2017-03-04T13:06:15.072Z,19616
2017-03-04T13:07:24.964Z,19136
2017-03-04T13:08:35.610Z,18784
2017-03-04T13:09:44.358Z,18688
2017-03-04T13:10:55.015Z,18816
2017-03-04T13:12:04.124Z,19200
2017-03-04T13:13:13.980Z,19872
2017-03-04T13:14:24.228Z,20512
2017-03-04T13:15:33.344Z,20768
2017-03-04T13:16:42.442Z,20608
2017-03-04T13:17:51.542Z,20064
2017-03-04T13:19:01.430Z,19360
2017-03-04T13:20:10.930Z,18720
2017-03-04T13:21:20.792Z,18304
2017-03-04T13:22:30.653Z,18272
2017-03-04T13:23:40.129Z,18752
2017-03-04T13:24:49.229Z,19424
2017-03-04T13:25:59.474Z,20192
2017-03-04T13:27:08.951Z,20576
2017-03-04T13:28:18.808Z,20480
2017-03-04T13:29:28.284Z,19968
2017-03-04T13:30:38.135Z,19424
2017-03-04T13:31:48.004Z,19008
2017-03-04T13:32:57.109Z,18528
2017-03-04T13:34:07.360Z,18176
2017-03-04T13:35:16.851Z,18016
2017-03-04T13:36:26.323Z,17856
2017-03-04T13:37:35.819Z,17792
2017-03-04T13:38:44.923Z,17952
2017-03-04T13:39:54.036Z,18336
2017-03-04T13:41:03.512Z,18848
2017-03-04T13:42:12.620Z,19168
2017-03-04T13:43:22.472Z,19200
2017-03-04T13:44:31.958Z,19040
2017-03-04T13:45:41.445Z,18624
2017-03-04T13:46:51.348Z,18304
2017-03-04T13:48:00.846Z,18112
2017-03-04T13:49:09.988Z,18144
2017-03-04T13:50:19.863Z,18368
2017-03-04T13:51:30.126Z,18560
2017-03-04T13:52:39.621Z,18752
2017-03-04T13:53:49.496Z,18976
2017-03-04T13:54:58.997Z,19296
2017-03-04T13:56:08.882Z,19616
2017-03-04T13:57:18.760Z,19904
2017-03-04T13:58:27.854Z,20128
2017-03-04T13:59:38.104Z,20256
2017-03-04T14:00:47.990Z,20256
2017-03-04T14:01:57.471Z,20352
2017-03-04T14:03:06.966Z,20512
2017-03-04T14:04:16.075Z,20736
2017-03-04T14:05:25.176Z,20960
2017-03-04T14:06:34.652Z,21248
2017-03-04T14:07:44.159Z,21408
2017-03-04T14:08:53.657Z,21344
2017-03-04T14:10:03.901Z,21088
2017-03-04T14:11:12.996Z,20704
2017-03-04T14:12:22.861Z,20256
2017-03-04T14:13:31.977Z,19776
2017-03-04T14:14:41.098Z,19360
2017-03-04T14:15:50.968Z,19040
2017-03-04T14:17:01.236Z,18720
2017-03-04T14:18:11.495Z,18304
2017-03-04T14:19:20.988Z,17824
2017-03-04T14:20:30.091Z,17168
2017-03-04T14:21:39.949Z,16672
2017-03-04T14:22:49.058Z,16320
2017-03-04T14:23:58.954Z,16108
2017-03-04T14:25:08.838Z,15984
2017-03-04T14:26:19.477Z,15724
2017-03-04T14:27:28.948Z,15008
2017-03-04T14:28:38.452Z,14212
2017-03-04T14:29:48.718Z,13344
2017-03-04T14:30:58.607Z,12440
2017-03-04T14:32:08.462Z,12024
2017-03-04T14:33:17.557Z,12072
2017-03-04T14:34:27.101Z,12432
2017-03-04T14:35:37.340Z,12460
2017-03-04T14:36:47.579Z,11632
2017-03-04T14:37:57.448Z,10644
2017-03-04T14:39:06.937Z,9448
2017-03-04T14:40:16.840Z,8396
2017-03-04T14:41:25.608Z,7292
2017-03-04T14:42:35.104Z,6168
2017-03-04T14:43:44.190Z,5588
2017-03-04T14:44:54.051Z,5200
2017-03-04T14:46:03.547Z,4896
2017-03-04T14:47:13.023Z,4796
2017-03-04T14:48:22.490Z,5012
2017-03-04T14:49:32.388Z,5500
2017-03-04T14:50:42.293Z,5700
2017-03-04T14:51:51.774Z,5472
2017-03-04T14:53:01.250Z,5160
2017-03-04T14:54:10.373Z,4908
2017-03-04T14:55:20.247Z,4712
2017-03-04T14:56:30.502Z,4628
2017-03-04T14:57:40.757Z,4800
2017-03-04T14:58:50.236Z,5392
2017-03-04T14:59:59.342Z,6152
2017-03-04T15:01:09.604Z,6588
2017-03-04T15:02:19.464Z,6572
2017-03-04T15:03:28.947Z,6480
2017-03-04T15:04:38.802Z,6460
2017-03-04T15:05:48.664Z,6340
2017-03-04T15:06:58.533Z,6008
2017-03-04T15:08:08.793Z,5644
2017-03-04T15:09:17.891Z,5496
2017-03-04T15:10:28.128Z,5712
2017-03-04T15:11:37.616Z,6084
2017-03-04T15:12:47.846Z,6384
2017-03-04T15:13:56.972Z,6432
2017-03-04T15:15:06.110Z,6464
2017-03-04T15:16:16.348Z,6692
2017-03-04T15:17:26.207Z,7228
2017-03-04T15:18:35.314Z,7732
2017-03-04T15:19:45.570Z,8320
2017-03-04T15:20:55.058Z,8872
2017-03-04T15:22:04.528Z,9132
2017-03-04T15:23:13.239Z,9112
2017-03-04T15:24:23.127Z,9020
2017-03-04T15:25:32.985Z,8892
2017-03-04T15:26:42.475Z,8672
2017-03-04T15:27:52.339Z,8448
2017-03-04T15:29:02.599Z,8304
2017-03-04T15:30:11.306Z,8228
2017-03-04T15:31:20.775Z,8144
2017-03-04T15:32:29.874Z,8004
2017-03-04T15:33:38.975Z,7816
2017-03-04T15:34:48.871Z,7596
2017-03-04T15:35:59.124Z,7356
2017-03-04T15:37:08.619Z,7108
2017-03-04T15:38:18.105Z,6828
2017-03-04T15:39:27.968Z,6520
2017-03-04T15:40:36.684Z,6204
2017-03-04T15:41:46.187Z,5900
2017-03-04T15:42:55.660Z,5628
2017-03-04T15:44:05.909Z,5392
2017-03-04T15:45:16.150Z,5188
2017-03-04T15:46:26.023Z,5036
2017-03-04T15:47:35.907Z,4920
2017-03-04T15:48:45.378Z,4808
2017-03-04T15:49:54.856Z,4732
2017-03-04T15:51:04.714Z,4676
2017-03-04T15:52:13.799Z,4672